ANZ626 NZQN-NZAA
Flight info
| Callsign | ANZ626 |
|---|---|
| Flight time | N/A |
| Altitude | 37000 |
| Route | SAVLA Y569 LOVTA Y655 POKOM Q277 DAVEE |
| Aircraft | A320/M-SDE3FGHIRWY/LB1 |
Departure
| Time | 2026-04-30 05:53 |
|---|---|
| Airport | Queenstown Airport (NZQN) |
Arrival
| Time | N/A |
|---|---|
| Airport | Auckland International Airport (NZAA) |
| Time | Latitude | Longitude | Altitude | Speed | Heading |
|---|---|---|---|---|---|
| 2026-04-30 05:23 | -45.02109 | 168.73964 | 1163 ft | 0 kts | 206° |
| 2026-04-30 05:35 | -45.02103 | 168.73968 | 1162 ft | 4 kts | 206° |
| 2026-04-30 05:35 | -45.02083 | 168.73981 | 1163 ft | 0 kts | 201° |
| 2026-04-30 05:36 | -45.02084 | 168.73981 | 1163 ft | 0 kts | 201° |
| 2026-04-30 05:38 | -45.02086 | 168.73981 | 1162 ft | 1 kts | 185° |
| 2026-04-30 05:38 | -45.02087 | 168.73997 | 1162 ft | 3 kts | 87° |
| 2026-04-30 05:38 | -45.02055 | 168.74047 | 1163 ft | 10 kts | 36° |
| 2026-04-30 05:39 | -45.02014 | 168.74076 | 1165 ft | 1 kts | 25° |
| 2026-04-30 05:39 | -45.02013 | 168.74076 | 1165 ft | 0 kts | 25° |
| 2026-04-30 05:39 | -45.02010 | 168.74078 | 1162 ft | 2 kts | 25° |
| 2026-04-30 05:40 | -45.02007 | 168.74080 | 1163 ft | 0 kts | 25° |
| 2026-04-30 05:47 | -45.01996 | 168.74087 | 1164 ft | 5 kts | 25° |
| 2026-04-30 05:47 | -45.01945 | 168.74118 | 1166 ft | 11 kts | 23° |
| 2026-04-30 05:47 | -45.01895 | 168.74236 | 1166 ft | 19 kts | 78° |
| 2026-04-30 05:48 | -45.01865 | 168.74436 | 1167 ft | 23 kts | 78° |
| 2026-04-30 05:48 | -45.01824 | 168.74690 | 1165 ft | 29 kts | 78° |
| 2026-04-30 05:48 | -45.01780 | 168.74974 | 1166 ft | 29 kts | 77° |
| 2026-04-30 05:48 | -45.01735 | 168.75260 | 1199 ft | 31 kts | 77° |
| 2026-04-30 05:49 | -45.01699 | 168.75484 | 1198 ft | 22 kts | 77° |
| 2026-04-30 05:49 | -45.01665 | 168.75708 | 1195 ft | 25 kts | 78° |
| 2026-04-30 05:49 | -45.01645 | 168.75827 | 1193 ft | 3 kts | 155° |
| 2026-04-30 05:49 | -45.01652 | 168.75819 | 1195 ft | 0 kts | 229° |
| 2026-04-30 05:50 | -45.01651 | 168.75812 | 1195 ft | 0 kts | 260° |
| 2026-04-30 05:52 | -45.01652 | 168.75811 | 1197 ft | 1 kts | 260° |
| 2026-04-30 05:52 | -45.01702 | 168.75472 | 1198 ft | 76 kts | 256° |
| 2026-04-30 05:53 | -45.01868 | 168.74424 | 1169 ft | 138 kts | 257° |
| 2026-04-30 05:53 | -45.02090 | 168.72996 | 1609 ft | 151 kts | 257° |
| 2026-04-30 05:53 | -45.02314 | 168.71574 | 2320 ft | 149 kts | 256° |
| 2026-04-30 05:53 | -45.02704 | 168.70223 | 2928 ft | 150 kts | 240° |
| 2026-04-30 05:54 | -45.03374 | 168.69032 | 3336 ft | 160 kts | 224° |
| 2026-04-30 05:54 | -45.04308 | 168.68132 | 3843 ft | 166 kts | 206° |
| 2026-04-30 05:54 | -45.05423 | 168.67661 | 4308 ft | 170 kts | 188° |
| 2026-04-30 05:54 | -45.06615 | 168.67709 | 4776 ft | 174 kts | 170° |
| 2026-04-30 05:55 | -45.07759 | 168.68304 | 5258 ft | 178 kts | 151° |
| 2026-04-30 05:55 | -45.08724 | 168.69408 | 5738 ft | 180 kts | 131° |
| 2026-04-30 05:55 | -45.09449 | 168.70865 | 6179 ft | 182 kts | 127° |
| 2026-04-30 05:55 | -45.10303 | 168.72196 | 6642 ft | 183 kts | 140° |
| 2026-04-30 05:56 | -45.11332 | 168.73263 | 7090 ft | 184 kts | 152° |
| 2026-04-30 05:56 | -45.12509 | 168.74001 | 7416 ft | 190 kts | 172° |
| 2026-04-30 05:56 | -45.13835 | 168.73733 | 7537 ft | 203 kts | 211° |
| 2026-04-30 05:56 | -45.14851 | 168.72262 | 7696 ft | 222 kts | 247° |
| 2026-04-30 05:57 | -45.15160 | 168.70040 | 7930 ft | 243 kts | 276° |
| 2026-04-30 05:57 | -45.14550 | 168.67723 | 8327 ft | 265 kts | 308° |
| 2026-04-30 05:57 | -45.13054 | 168.66170 | 8975 ft | 276 kts | 340° |
| 2026-04-30 05:57 | -45.11131 | 168.66064 | 9758 ft | 285 kts | 12° |
| 2026-04-30 05:58 | -45.09246 | 168.67141 | 10273 ft | 303 kts | 23° |
| 2026-04-30 05:58 | -45.07311 | 168.68618 | 10500 ft | 328 kts | 27° |
| 2026-04-30 05:58 | -45.05292 | 168.70325 | 10847 ft | 345 kts | 28° |
| 2026-04-30 05:58 | -45.03228 | 168.72113 | 11516 ft | 351 kts | 28° |
| 2026-04-30 05:59 | -45.01127 | 168.73900 | 12260 ft | 353 kts | 28° |
| 2026-04-30 05:59 | -44.99002 | 168.75653 | 13000 ft | 355 kts | 27° |
| 2026-04-30 05:59 | -44.96878 | 168.77365 | 13719 ft | 358 kts | 26° |
| 2026-04-30 05:59 | -44.94702 | 168.79092 | 14435 ft | 360 kts | 26° |
| 2026-04-30 06:00 | -44.92501 | 168.80821 | 15047 ft | 364 kts | 26° |
| 2026-04-30 06:00 | -44.90279 | 168.82560 | 15616 ft | 367 kts | 26° |
| 2026-04-30 06:00 | -44.88032 | 168.84317 | 16205 ft | 371 kts | 26° |
| 2026-04-30 06:00 | -44.85761 | 168.86095 | 16790 ft | 375 kts | 26° |
| 2026-04-30 06:01 | -44.83471 | 168.87891 | 17327 ft | 378 kts | 26° |
| 2026-04-30 06:01 | -44.81163 | 168.89704 | 17911 ft | 382 kts | 26° |
| 2026-04-30 06:01 | -44.78762 | 168.91589 | 18531 ft | 385 kts | 26° |
| 2026-04-30 06:01 | -44.76483 | 168.93382 | 19083 ft | 389 kts | 26° |
| 2026-04-30 06:02 | -44.74104 | 168.95253 | 19607 ft | 393 kts | 26° |
| 2026-04-30 06:02 | -44.71708 | 168.97133 | 20138 ft | 397 kts | 26° |
| 2026-04-30 06:02 | -44.69286 | 168.99035 | 20671 ft | 401 kts | 26° |
| 2026-04-30 06:02 | -44.66839 | 169.00956 | 21171 ft | 404 kts | 26° |
| 2026-04-30 06:03 | -44.64332 | 169.02916 | 21670 ft | 407 kts | 26° |
| 2026-04-30 06:03 | -44.61873 | 169.04832 | 22152 ft | 411 kts | 26° |
| 2026-04-30 06:03 | -44.59363 | 169.06781 | 22602 ft | 414 kts | 26° |
| 2026-04-30 06:03 | -44.56836 | 169.08744 | 23062 ft | 418 kts | 26° |
| 2026-04-30 06:04 | -44.54312 | 169.10706 | 23521 ft | 421 kts | 27° |
| 2026-04-30 06:04 | -44.51741 | 169.12703 | 23965 ft | 424 kts | 27° |
| 2026-04-30 06:04 | -44.49463 | 169.14472 | 24325 ft | 427 kts | 27° |
| 2026-04-30 06:05 | -44.44260 | 169.18506 | 25129 ft | 432 kts | 27° |
| 2026-04-30 06:05 | -44.41623 | 169.20552 | 25529 ft | 434 kts | 27° |
| 2026-04-30 06:05 | -44.38974 | 169.22605 | 25919 ft | 437 kts | 27° |
| 2026-04-30 06:05 | -44.36310 | 169.24668 | 26303 ft | 439 kts | 27° |
| 2026-04-30 06:06 | -44.33631 | 169.26739 | 26683 ft | 441 kts | 27° |
| 2026-04-30 06:06 | -44.30935 | 169.28817 | 27061 ft | 444 kts | 27° |
| 2026-04-30 06:06 | -44.28223 | 169.30901 | 27437 ft | 446 kts | 27° |
| 2026-04-30 06:06 | -44.25495 | 169.32996 | 27833 ft | 449 kts | 27° |
| 2026-04-30 06:07 | -44.22751 | 169.35103 | 28218 ft | 451 kts | 27° |
| 2026-04-30 06:07 | -44.19995 | 169.37215 | 28587 ft | 453 kts | 27° |
| 2026-04-30 06:07 | -44.17221 | 169.39342 | 28964 ft | 456 kts | 27° |
| 2026-04-30 06:07 | -44.14435 | 169.41474 | 29328 ft | 458 kts | 27° |
| 2026-04-30 06:08 | -44.11628 | 169.43618 | 29684 ft | 460 kts | 27° |
| 2026-04-30 06:08 | -44.08814 | 169.45768 | 30045 ft | 462 kts | 27° |
| 2026-04-30 06:08 | -44.05998 | 169.47919 | 30534 ft | 462 kts | 27° |
| 2026-04-30 06:08 | -44.03219 | 169.50039 | 31010 ft | 460 kts | 27° |
| 2026-04-30 06:09 | -44.00376 | 169.52207 | 31437 ft | 460 kts | 27° |
| 2026-04-30 06:09 | -43.97606 | 169.54313 | 31851 ft | 460 kts | 27° |
| 2026-04-30 06:09 | -43.94801 | 169.56445 | 32267 ft | 460 kts | 27° |
| 2026-04-30 06:09 | -43.91988 | 169.58584 | 32665 ft | 460 kts | 27° |
| 2026-04-30 06:10 | -43.89178 | 169.60719 | 33075 ft | 461 kts | 27° |
| 2026-04-30 06:10 | -43.86361 | 169.62852 | 33483 ft | 461 kts | 27° |
| 2026-04-30 06:10 | -43.83550 | 169.64976 | 33903 ft | 461 kts | 27° |
| 2026-04-30 06:10 | -43.80725 | 169.67107 | 34330 ft | 461 kts | 27° |
| 2026-04-30 06:11 | -43.77913 | 169.69229 | 34746 ft | 461 kts | 27° |
| 2026-04-30 06:11 | -43.75097 | 169.71354 | 35103 ft | 461 kts | 27° |
| 2026-04-30 06:11 | -43.72277 | 169.73476 | 35439 ft | 461 kts | 27° |
| 2026-04-30 06:11 | -43.69460 | 169.75589 | 35783 ft | 461 kts | 27° |
| 2026-04-30 06:12 | -43.66642 | 169.77700 | 36127 ft | 461 kts | 27° |
| 2026-04-30 06:12 | -43.63817 | 169.79819 | 36468 ft | 461 kts | 27° |
| 2026-04-30 06:12 | -43.60998 | 169.81938 | 36770 ft | 461 kts | 27° |
| 2026-04-30 06:12 | -43.58183 | 169.84058 | 37084 ft | 461 kts | 27° |
| 2026-04-30 06:13 | -43.55365 | 169.86176 | 37390 ft | 461 kts | 27° |
| 2026-04-30 06:13 | -43.52541 | 169.88288 | 37594 ft | 462 kts | 27° |
| 2026-04-30 06:13 | -43.49711 | 169.90427 | 37633 ft | 466 kts | 30° |
| 2026-04-30 06:14 | -43.44570 | 169.95877 | 37635 ft | 468 kts | 40° |
| 2026-04-30 06:14 | -43.39609 | 170.01689 | 37621 ft | 468 kts | 40° |
| 2026-04-30 06:15 | -43.34670 | 170.07444 | 37628 ft | 468 kts | 39° |
| 2026-04-30 06:15 | -43.29690 | 170.13221 | 37624 ft | 468 kts | 39° |
| 2026-04-30 06:16 | -43.24712 | 170.18990 | 37632 ft | 469 kts | 40° |
| 2026-04-30 06:16 | -43.19723 | 170.24764 | 37629 ft | 469 kts | 40° |
| 2026-04-30 06:17 | -43.14731 | 170.30525 | 37627 ft | 469 kts | 40° |
| 2026-04-30 06:17 | -43.09736 | 170.36287 | 37635 ft | 469 kts | 40° |
| 2026-04-30 06:18 | -43.04736 | 170.42045 | 37648 ft | 470 kts | 40° |
| 2026-04-30 06:18 | -42.99729 | 170.47786 | 37634 ft | 470 kts | 40° |
| 2026-04-30 06:19 | -42.94746 | 170.53468 | 37631 ft | 470 kts | 40° |
| 2026-04-30 06:19 | -42.89727 | 170.59180 | 37641 ft | 470 kts | 40° |
| 2026-04-30 06:20 | -42.84712 | 170.64908 | 37642 ft | 470 kts | 40° |
| 2026-04-30 06:20 | -42.79695 | 170.70619 | 37635 ft | 470 kts | 40° |
| 2026-04-30 06:21 | -42.74669 | 170.76321 | 37637 ft | 470 kts | 40° |
| 2026-04-30 06:21 | -42.69635 | 170.82006 | 37640 ft | 470 kts | 40° |
| 2026-04-30 06:22 | -42.64602 | 170.87692 | 37631 ft | 470 kts | 40° |
| 2026-04-30 06:22 | -42.59566 | 170.93365 | 37650 ft | 471 kts | 40° |
| 2026-04-30 06:23 | -42.54522 | 170.99045 | 37650 ft | 471 kts | 40° |
| 2026-04-30 06:23 | -42.49515 | 171.04666 | 37654 ft | 471 kts | 40° |
| 2026-04-30 06:24 | -42.44466 | 171.10315 | 37648 ft | 471 kts | 40° |
| 2026-04-30 06:24 | -42.39414 | 171.15952 | 37651 ft | 471 kts | 40° |
| 2026-04-30 06:25 | -42.34364 | 171.21583 | 37643 ft | 471 kts | 40° |
| 2026-04-30 06:25 | -42.29306 | 171.27207 | 37650 ft | 471 kts | 40° |
| 2026-04-30 06:26 | -42.24248 | 171.32827 | 37652 ft | 471 kts | 40° |
| 2026-04-30 06:26 | -42.19185 | 171.38433 | 37651 ft | 471 kts | 40° |
| 2026-04-30 06:27 | -42.14119 | 171.44028 | 37646 ft | 471 kts | 40° |
| 2026-04-30 06:27 | -42.09083 | 171.49575 | 37631 ft | 471 kts | 40° |
| 2026-04-30 06:28 | -42.04015 | 171.55156 | 37636 ft | 471 kts | 40° |
| 2026-04-30 06:28 | -41.98936 | 171.60725 | 37640 ft | 471 kts | 40° |
| 2026-04-30 06:29 | -41.93981 | 171.66492 | 37655 ft | 471 kts | 43° |
| 2026-04-30 06:29 | -41.89191 | 171.72485 | 37649 ft | 471 kts | 44° |
| 2026-04-30 06:30 | -41.84394 | 171.78473 | 37638 ft | 471 kts | 44° |
| 2026-04-30 06:30 | -41.79537 | 171.84373 | 37645 ft | 471 kts | 43° |
| 2026-04-30 06:31 | -41.74649 | 171.90231 | 37646 ft | 471 kts | 43° |
| 2026-04-30 06:31 | -41.69769 | 171.96101 | 37641 ft | 471 kts | 43° |
| 2026-04-30 06:32 | -41.64903 | 172.01970 | 37644 ft | 471 kts | 43° |
| 2026-04-30 06:32 | -41.60034 | 172.07841 | 37654 ft | 471 kts | 43° |
| 2026-04-30 06:33 | -41.55190 | 172.13666 | 37657 ft | 471 kts | 43° |
| 2026-04-30 06:33 | -41.50314 | 172.19510 | 37653 ft | 471 kts | 43° |
| 2026-04-30 06:34 | -41.45434 | 172.25323 | 37642 ft | 470 kts | 43° |
| 2026-04-30 06:34 | -41.40564 | 172.31135 | 37649 ft | 470 kts | 43° |
| 2026-04-30 06:35 | -41.35690 | 172.36936 | 37648 ft | 470 kts | 43° |
| 2026-04-30 06:35 | -41.30801 | 172.42737 | 37659 ft | 470 kts | 43° |
| 2026-04-30 06:36 | -41.25922 | 172.48521 | 37667 ft | 470 kts | 43° |
| 2026-04-30 06:36 | -41.21049 | 172.54293 | 37663 ft | 469 kts | 43° |
| 2026-04-30 06:37 | -41.16170 | 172.60055 | 37670 ft | 469 kts | 42° |
| 2026-04-30 06:37 | -41.12107 | 172.64831 | 37664 ft | 469 kts | 42° |
| 2026-04-30 06:38 | -41.07220 | 172.70564 | 37649 ft | 469 kts | 42° |
| 2026-04-30 06:38 | -41.01539 | 172.77227 | 37674 ft | 470 kts | 42° |
| 2026-04-30 06:39 | -40.97442 | 172.82031 | 37664 ft | 469 kts | 42° |
| 2026-04-30 06:39 | -40.92545 | 172.87755 | 37671 ft | 469 kts | 42° |
| 2026-04-30 06:40 | -40.87683 | 172.93426 | 37655 ft | 469 kts | 42° |
| 2026-04-30 06:40 | -40.82776 | 172.99133 | 37658 ft | 470 kts | 42° |
| 2026-04-30 06:41 | -40.77862 | 173.04833 | 37661 ft | 470 kts | 42° |
| 2026-04-30 06:41 | -40.72947 | 173.10530 | 37667 ft | 470 kts | 42° |
| 2026-04-30 06:42 | -40.68025 | 173.16225 | 37658 ft | 471 kts | 42° |
| 2026-04-30 06:42 | -40.63094 | 173.21921 | 37647 ft | 472 kts | 42° |
| 2026-04-30 06:43 | -40.58141 | 173.27622 | 37652 ft | 473 kts | 41° |
| 2026-04-30 06:43 | -40.53174 | 173.33325 | 37652 ft | 474 kts | 41° |
| 2026-04-30 06:44 | -40.48205 | 173.39025 | 37660 ft | 474 kts | 41° |
| 2026-04-30 06:44 | -40.43231 | 173.44716 | 37658 ft | 474 kts | 41° |
| 2026-04-30 06:45 | -40.38286 | 173.50358 | 37650 ft | 474 kts | 41° |
| 2026-04-30 06:45 | -40.33270 | 173.56066 | 37665 ft | 474 kts | 41° |
| 2026-04-30 06:46 | -40.28314 | 173.61689 | 37647 ft | 474 kts | 41° |
| 2026-04-30 06:46 | -40.23325 | 173.67337 | 37638 ft | 474 kts | 41° |
| 2026-04-30 06:47 | -40.18329 | 173.72986 | 37637 ft | 474 kts | 41° |
| 2026-04-30 06:47 | -40.13330 | 173.78636 | 37641 ft | 475 kts | 41° |
| 2026-04-30 06:48 | -40.08334 | 173.84281 | 37642 ft | 475 kts | 40° |
| 2026-04-30 06:48 | -40.03323 | 173.89904 | 37648 ft | 475 kts | 40° |
| 2026-04-30 06:49 | -39.98314 | 173.95512 | 37656 ft | 474 kts | 40° |
| 2026-04-30 06:49 | -39.93313 | 174.01110 | 37642 ft | 473 kts | 40° |
| 2026-04-30 06:50 | -39.88350 | 174.06656 | 37639 ft | 473 kts | 40° |
| 2026-04-30 06:50 | -39.83353 | 174.12226 | 37620 ft | 473 kts | 40° |
| 2026-04-30 06:51 | -39.78345 | 174.17799 | 37622 ft | 474 kts | 40° |
| 2026-04-30 06:51 | -39.73325 | 174.23371 | 37625 ft | 474 kts | 40° |
| 2026-04-30 06:52 | -39.68299 | 174.28937 | 37629 ft | 475 kts | 40° |
| 2026-04-30 06:52 | -39.63271 | 174.34487 | 37628 ft | 474 kts | 40° |
| 2026-04-30 06:53 | -39.58243 | 174.40039 | 37624 ft | 474 kts | 40° |
| 2026-04-30 06:53 | -39.53210 | 174.45579 | 37615 ft | 474 kts | 38° |
| 2026-04-30 06:54 | -39.47585 | 174.49810 | 37619 ft | 470 kts | 19° |
| 2026-04-30 06:54 | -39.41257 | 174.51687 | 37600 ft | 466 kts | 6° |
| 2026-04-30 06:55 | -39.34823 | 174.52899 | 37601 ft | 467 kts | 6° |
| 2026-04-30 06:55 | -39.28392 | 174.54137 | 37601 ft | 467 kts | 6° |
| 2026-04-30 06:56 | -39.21956 | 174.55367 | 37598 ft | 468 kts | 6° |
| 2026-04-30 06:56 | -39.15648 | 174.56566 | 37586 ft | 468 kts | 6° |
| 2026-04-30 06:57 | -39.09207 | 174.57795 | 37589 ft | 468 kts | 6° |
| 2026-04-30 06:57 | -39.02767 | 174.59028 | 37592 ft | 468 kts | 6° |
| 2026-04-30 06:58 | -38.96327 | 174.60255 | 37579 ft | 468 kts | 6° |
| 2026-04-30 06:58 | -38.89882 | 174.61473 | 37581 ft | 468 kts | 6° |
| 2026-04-30 06:58 | -38.86663 | 174.62083 | 37439 ft | 468 kts | 6° |
| 2026-04-30 06:59 | -38.83445 | 174.62690 | 37180 ft | 467 kts | 5° |
| 2026-04-30 06:59 | -38.80230 | 174.63293 | 36922 ft | 466 kts | 5° |
| 2026-04-30 06:59 | -38.77062 | 174.63888 | 36672 ft | 466 kts | 5° |
| 2026-04-30 06:59 | -38.73855 | 174.64493 | 36411 ft | 466 kts | 5° |
| 2026-04-30 07:00 | -38.70641 | 174.65100 | 36160 ft | 466 kts | 5° |
| 2026-04-30 07:00 | -38.67421 | 174.65707 | 35909 ft | 466 kts | 5° |
| 2026-04-30 07:00 | -38.64213 | 174.66308 | 35652 ft | 467 kts | 5° |
| 2026-04-30 07:00 | -38.60982 | 174.66908 | 34856 ft | 472 kts | 5° |
| 2026-04-30 07:01 | -38.57707 | 174.67518 | 33831 ft | 479 kts | 5° |
| 2026-04-30 07:01 | -38.54400 | 174.68138 | 32913 ft | 482 kts | 6° |
| 2026-04-30 07:01 | -38.51070 | 174.68762 | 31914 ft | 486 kts | 6° |
| 2026-04-30 07:01 | -38.47706 | 174.69394 | 31005 ft | 488 kts | 6° |
| 2026-04-30 07:02 | -38.44343 | 174.70027 | 29997 ft | 490 kts | 6° |
| 2026-04-30 07:02 | -38.40988 | 174.70660 | 29077 ft | 487 kts | 6° |
| 2026-04-30 07:02 | -38.37642 | 174.71288 | 28364 ft | 482 kts | 6° |
| 2026-04-30 07:02 | -38.34385 | 174.71895 | 27667 ft | 476 kts | 7° |
| 2026-04-30 07:03 | -38.31127 | 174.72503 | 26977 ft | 471 kts | 7° |
| 2026-04-30 07:03 | -38.27904 | 174.73104 | 26291 ft | 465 kts | 7° |
| 2026-04-30 07:03 | -38.24714 | 174.73698 | 25614 ft | 460 kts | 7° |
| 2026-04-30 07:03 | -38.21556 | 174.74284 | 24945 ft | 456 kts | 7° |
| 2026-04-30 07:04 | -38.18428 | 174.74866 | 24280 ft | 452 kts | 7° |
| 2026-04-30 07:04 | -38.15328 | 174.75441 | 23548 ft | 448 kts | 7° |
| 2026-04-30 07:04 | -38.12268 | 174.76010 | 22932 ft | 441 kts | 8° |
| 2026-04-30 07:04 | -38.09254 | 174.76569 | 22324 ft | 434 kts | 8° |
| 2026-04-30 07:05 | -38.03352 | 174.77658 | 21182 ft | 423 kts | 8° |
| 2026-04-30 07:05 | -38.00454 | 174.78190 | 20626 ft | 419 kts | 8° |
| 2026-04-30 07:05 | -37.97577 | 174.78719 | 20078 ft | 416 kts | 8° |
| 2026-04-30 07:06 | -37.94728 | 174.79245 | 19523 ft | 413 kts | 8° |
| 2026-04-30 07:06 | -37.91894 | 174.79768 | 18967 ft | 410 kts | 8° |
| 2026-04-30 07:06 | -37.89082 | 174.80287 | 18361 ft | 407 kts | 8° |
| 2026-04-30 07:06 | -37.86316 | 174.80648 | 17815 ft | 403 kts | 1° |
| 2026-04-30 07:07 | -37.83530 | 174.80682 | 17247 ft | 398 kts | 0° |
| 2026-04-30 07:07 | -37.80774 | 174.80708 | 16676 ft | 394 kts | 0° |
| 2026-04-30 07:07 | -37.78045 | 174.80736 | 16101 ft | 391 kts | 1° |
| 2026-04-30 07:07 | -37.75335 | 174.80770 | 15526 ft | 387 kts | 1° |
| 2026-04-30 07:08 | -37.72642 | 174.80805 | 14944 ft | 384 kts | 1° |
| 2026-04-30 07:08 | -37.69976 | 174.80843 | 14365 ft | 382 kts | 1° |
| 2026-04-30 07:08 | -37.67328 | 174.80880 | 13738 ft | 379 kts | 2° |
| 2026-04-30 07:08 | -37.64701 | 174.80914 | 13159 ft | 375 kts | 2° |
| 2026-04-30 07:09 | -37.62106 | 174.80949 | 12686 ft | 368 kts | 2° |
| 2026-04-30 07:09 | -37.59602 | 174.80969 | 12485 ft | 355 kts | 359° |
| 2026-04-30 07:09 | -37.57177 | 174.80602 | 12123 ft | 349 kts | 350° |
| 2026-04-30 07:09 | -37.54807 | 174.80037 | 11807 ft | 341 kts | 350° |
| 2026-04-30 07:10 | -37.52547 | 174.79493 | 11688 ft | 329 kts | 351° |
| 2026-04-30 07:10 | -37.50334 | 174.78961 | 11559 ft | 318 kts | 351° |
| 2026-04-30 07:10 | -37.48189 | 174.78450 | 11356 ft | 310 kts | 351° |
| 2026-04-30 07:10 | -37.46093 | 174.77954 | 11202 ft | 302 kts | 351° |
| 2026-04-30 07:11 | -37.44047 | 174.77470 | 10993 ft | 297 kts | 351° |
| 2026-04-30 07:11 | -37.42026 | 174.76994 | 10709 ft | 294 kts | 351° |
| 2026-04-30 07:11 | -37.40022 | 174.76524 | 10407 ft | 292 kts | 351° |
| 2026-04-30 07:11 | -37.38027 | 174.76056 | 10069 ft | 291 kts | 351° |
| 2026-04-30 07:12 | -37.36042 | 174.75589 | 9728 ft | 289 kts | 351° |
| 2026-04-30 07:12 | -37.34072 | 174.75124 | 9426 ft | 287 kts | 351° |
| 2026-04-30 07:12 | -37.32114 | 174.74661 | 9124 ft | 285 kts | 351° |
| 2026-04-30 07:12 | -37.30171 | 174.74204 | 8791 ft | 284 kts | 351° |
| 2026-04-30 07:13 | -37.28234 | 174.73749 | 8452 ft | 281 kts | 351° |
| 2026-04-30 07:13 | -37.26342 | 174.73303 | 7882 ft | 279 kts | 351° |
| 2026-04-30 07:13 | -37.24440 | 174.72856 | 7337 ft | 278 kts | 351° |
| 2026-04-30 07:13 | -37.22569 | 174.72419 | 7047 ft | 265 kts | 351° |
| 2026-04-30 07:14 | -37.20793 | 174.72003 | 6720 ft | 256 kts | 352° |
| 2026-04-30 07:14 | -37.19063 | 174.71577 | 6267 ft | 251 kts | 350° |
| 2026-04-30 07:14 | -37.17227 | 174.71076 | 5741 ft | 248 kts | 349° |
| 2026-04-30 07:14 | -37.15566 | 174.70609 | 5406 ft | 239 kts | 349° |
| 2026-04-30 07:15 | -37.13966 | 174.70155 | 5008 ft | 234 kts | 349° |
| 2026-04-30 07:15 | -37.12911 | 174.69856 | 4609 ft | 236 kts | 350° |
| 2026-04-30 07:15 | -37.11286 | 174.69399 | 3971 ft | 241 kts | 350° |
| 2026-04-30 07:15 | -37.09098 | 174.68790 | 3172 ft | 244 kts | 351° |
| 2026-04-30 07:16 | -37.07495 | 174.68344 | 2964 ft | 229 kts | 352° |
| 2026-04-30 07:16 | -37.05936 | 174.68260 | 2380 ft | 224 kts | 16° |